sensor_id;sensor_type;location;lat;lon;timestamp;pressure;altitude;pressure_sealevel;temperature;humidity
55263;BME280;41125;48.752;9.168;2023-12-22T00:00:10;95578.53;;;5.62;100.00
55263;BME280;41125;48.752;9.168;2023-12-22T00:00:41;95581.22;;;5.62;100.00
55263;BME280;41125;48.752;9.168;2023-12-22T00:01:12;95595.19;;;5.64;100.00
55263;BME280;41125;48.752;9.168;2023-12-22T00:01:46;95604.63;;;5.61;100.00
55263;BME280;41125;48.752;9.168;2023-12-22T00:02:18;95598.47;;;5.61;100.00
55263;BME280;41125;48.752;9.168;2023-12-22T00:02:49;95601.22;;;5.56;100.00
55263;BME280;41125;48.752;9.168;2023-12-22T00:03:21;95592.34;;;5.55;100.00
55263;BME280;41125;48.752;9.168;2023-12-22T00:03:52;95595.25;;;5.59;100.00
55263;BME280;41125;48.752;9.168;2023-12-22T00:04:23;95582.38;;;5.56;100.00
55263;BME280;41125;48.752;9.168;2023-12-22T00:04:55;95580.72;;;5.60;100.00
55263;BME280;41125;48.752;9.168;2023-12-22T00:05:26;95582.31;;;5.61;100.00
55263;BME280;41125;48.752;9.168;2023-12-22T00:05:58;95575.75;;;5.67;100.00
55263;BME280;41125;48.752;9.168;2023-12-22T00:06:29;95584.41;;;5.64;100.00
55263;BME280;41125;48.752;9.168;2023-12-22T00:07:01;95582.25;;;5.66;100.00
55263;BME280;41125;48.752;9.168;2023-12-22T00:07:32;95587.91;;;5.64;100.00
55263;BME280;41125;48.752;9.168;2023-12-22T00:08:04;95580.72;;;5.60;100.00
55263;BME280;41125;48.752;9.168;2023-12-22T00:08:35;95581.91;;;5.54;100.00
55263;BME280;41125;48.752;9.168;2023-12-22T00:09:07;95568.53;;;5.49;100.00
55263;BME280;41125;48.752;9.168;2023-12-22T00:09:38;95572.91;;;5.45;100.00
55263;BME280;41125;48.752;9.168;2023-12-22T00:10:10;95577.69;;;5.48;100.00
55263;BME280;41125;48.752;9.168;2023-12-22T00:10:42;95578.28;;;5.45;100.00
55263;BME280;41125;48.752;9.168;2023-12-22T00:11:13;95587.94;;;5.46;100.00
55263;BME280;41125;48.752;9.168;2023-12-22T00:11:52;95577.19;;;5.46;100.00
55263;BME280;41125;48.752;9.168;2023-12-22T00:12:25;95585.84;;;5.43;100.00
55263;BME280;41125;48.752;9.168;2023-12-22T00:12:57;95581.53;;;5.42;100.00
55263;BME280;41125;48.752;9.168;2023-12-22T00:13:29;95581.03;;;5.39;100.00
55263;BME280;41125;48.752;9.168;2023-12-22T00:14:00;95586.94;;;5.42;100.00
55263;BME280;41125;48.752;9.168;2023-12-22T00:14:31;95577.25;;;5.41;100.00
55263;BME280;41125;48.752;9.168;2023-12-22T00:15:04;95593.31;;;5.46;100.00
55263;BME280;41125;48.752;9.168;2023-12-22T00:15:35;95605.69;;;5.47;100.00
55263;BME280;41125;48.752;9.168;2023-12-22T00:16:07;95611.41;;;5.59;100.00
55263;BME280;41125;48.752;9.168;2023-12-22T00:16:38;95590.91;;;5.63;100.00
55263;BME280;41125;48.752;9.168;2023-12-22T00:17:09;95581.72;;;5.64;100.00
55263;BME280;41125;48.752;9.168;2023-12-22T00:18:50;95570.97;;;5.64;100.00
55263;BME280;41125;48.752;9.168;2023-12-22T00:19:24;95576.34;;;5.64;100.00
55263;BME280;41125;48.752;9.168;2023-12-22T00:19:59;95574.66;;;5.68;100.00
55263;BME280;41125;48.752;9.168;2023-12-22T00:20:37;95575.59;;;5.77;100.00
55263;BME280;41125;48.752;9.168;2023-12-22T00:21:11;95585.78;;;5.80;100.00
55263;BME280;41125;48.752;9.168;2023-12-22T00:21:43;95577.72;;;5.80;100.00
55263;BME280;41125;48.752;9.168;2023-12-22T00:22:14;95581.22;;;5.81;100.00
55263;BME280;41125;48.752;9.168;2023-12-22T00:22:45;95577.44;;;5.82;100.00
55263;BME280;41125;48.752;9.168;2023-12-22T00:23:17;95574.44;;;5.83;100.00
55263;BME280;41125;48.752;9.168;2023-12-22T00:23:48;95573.63;;;5.83;100.00
55263;BME280;41125;48.752;9.168;2023-12-22T00:24:19;95565.06;;;5.81;100.00
55263;BME280;41125;48.752;9.168;2023-12-22T00:24:51;95565.28;;;5.84;100.00
55263;BME280;41125;48.752;9.168;2023-12-22T00:25:22;95567.13;;;5.89;100.00
55263;BME280;41125;48.752;9.168;2023-12-22T00:25:53;95560.00;;;5.93;100.00
55263;BME280;41125;48.752;9.168;2023-12-22T00:26:24;95562.12;;;5.96;100.00
55263;BME280;41125;48.752;9.168;2023-12-22T00:26:57;95555.94;;;5.95;100.00
55263;BME280;41125;48.752;9.168;2023-12-22T00:27:28;95556.53;;;5.92;100.00
55263;BME280;41125;48.752;9.168;2023-12-22T00:27:59;95556.53;;;5.92;100.00
55263;BME280;41125;48.752;9.168;2023-12-22T00:28:31;95548.44;;;5.92;100.00
55263;BME280;41125;48.752;9.168;2023-12-22T00:29:05;95555.72;;;5.92;100.00
55263;BME280;41125;48.752;9.168;2023-12-22T00:29:36;95562.72;;;5.93;100.00
55263;BME280;41125;48.752;9.168;2023-12-22T00:30:09;95565.41;;;5.93;100.00
55263;BME280;41125;48.752;9.168;2023-12-22T00:30:41;95560.72;;;5.98;100.00
55263;BME280;41125;48.752;9.168;2023-12-22T00:31:15;95564.94;;;6.04;100.00
55263;BME280;41125;48.752;9.168;2023-12-22T00:31:47;95559.56;;;6.04;100.00
55263;BME280;41125;48.752;9.168;2023-12-22T00:32:19;95567.94;;;6.03;100.00
55263;BME280;41125;48.752;9.168;2023-12-22T00:32:51;95554.16;;;6.04;100.00
55263;BME280;41125;48.752;9.168;2023-12-22T00:33:22;95566.53;;;6.05;100.00
55263;BME280;41125;48.752;9.168;2023-12-22T00:33:53;95561.88;;;6.11;100.00
55263;BME280;41125;48.752;9.168;2023-12-22T00:34:25;95567.75;;;6.13;100.00
55263;BME280;41125;48.752;9.168;2023-12-22T00:34:56;95572.25;;;6.18;100.00
55263;BME280;41125;48.752;9.168;2023-12-22T00:35:29;95563.59;;;6.21;100.00
55263;BME280;41125;48.752;9.168;2023-12-22T00:36:00;95564.47;;;6.16;100.00
55263;BME280;41125;48.752;9.168;2023-12-22T00:36:31;95562.00;;;6.20;100.00
55263;BME280;41125;48.752;9.168;2023-12-22T00:37:03;95569.56;;;6.18;100.00
55263;BME280;41125;48.752;9.168;2023-12-22T00:37:35;95566.88;;;6.18;100.00
55263;BME280;41125;48.752;9.168;2023-12-22T00:38:06;95580.72;;;6.25;100.00
55263;BME280;41125;48.752;9.168;2023-12-22T00:38:39;95591.03;;;6.23;100.00
55263;BME280;41125;48.752;9.168;2023-12-22T00:39:10;95582.31;;;6.26;100.00
55263;BME280;41125;48.752;9.168;2023-12-22T00:39:41;95592.50;;;6.29;100.00
55263;BME280;41125;48.752;9.168;2023-12-22T00:40:13;95599.19;;;6.31;100.00
55263;BME280;41125;48.752;9.168;2023-12-22T00:40:46;95599.12;;;6.36;100.00
55263;BME280;41125;48.752;9.168;2023-12-22T00:41:18;95606.91;;;6.38;100.00
55263;BME280;41125;48.752;9.168;2023-12-22T00:41:49;95605.22;;;6.42;100.00
55263;BME280;41125;48.752;9.168;2023-12-22T00:42:20;95619.19;;;6.44;100.00
55263;BME280;41125;48.752;9.168;2023-12-22T00:42:51;95612.00;;;6.39;100.00
55263;BME280;41125;48.752;9.168;2023-12-22T00:43:23;95616.06;;;6.37;100.00
55263;BME280;41125;48.752;9.168;2023-12-22T00:43:55;95619.88;;;6.36;100.00
55263;BME280;41125;48.752;9.168;2023-12-22T00:44:26;95607.50;;;6.35;100.00
55263;BME280;41125;48.752;9.168;2023-12-22T00:44:59;95614.78;;;6.34;100.00
55263;BME280;41125;48.752;9.168;2023-12-22T00:45:31;95619.37;;;6.34;100.00
55263;BME280;41125;48.752;9.168;2023-12-22T00:46:02;95609.69;;;6.33;100.00
55263;BME280;41125;48.752;9.168;2023-12-22T00:46:34;95608.97;;;6.27;100.00
55263;BME280;41125;48.752;9.168;2023-12-22T00:47:05;95623.22;;;6.28;100.00
55263;BME280;41125;48.752;9.168;2023-12-22T00:47:36;95617.84;;;6.28;100.00
55263;BME280;41125;48.752;9.168;2023-12-22T00:48:09;95626.44;;;6.30;100.00
55263;BME280;41125;48.752;9.168;2023-12-22T00:48:42;95616.75;;;6.29;100.00
55263;BME280;41125;48.752;9.168;2023-12-22T00:49:14;95621.34;;;6.28;100.00
55263;BME280;41125;48.752;9.168;2023-12-22T00:49:45;95632.41;;;6.27;100.00
55263;BME280;41125;48.752;9.168;2023-12-22T00:50:16;95634.59;;;6.25;100.00
55263;BME280;41125;48.752;9.168;2023-12-22T00:50:47;95635.69;;;6.24;100.00
55263;BME280;41125;48.752;9.168;2023-12-22T00:51:18;95636.81;;;6.23;100.00
55263;BME280;41125;48.752;9.168;2023-12-22T00:51:49;95641.19;;;6.19;100.00
55263;BME280;41125;48.752;9.168;2023-12-22T00:52:21;95631.00;;;6.16;100.00
55263;BME280;41125;48.752;9.168;2023-12-22T00:52:52;95632.41;;;6.13;100.00
55263;BME280;41125;48.752;9.168;2023-12-22T00:53:23;95636.97;;;6.13;100.00
55263;BME280;41125;48.752;9.168;2023-12-22T00:53:55;95633.28;;;6.09;100.00
55263;BME280;41125;48.752;9.168;2023-12-22T00:54:26;95630.06;;;6.07;100.00
55263;BME280;41125;48.752;9.168;2023-12-22T00:54:58;95635.47;;;6.07;100.00
55263;BME280;41125;48.752;9.168;2023-12-22T00:55:29;95637.66;;;6.04;100.00
55263;BME280;41125;48.752;9.168;2023-12-22T00:56:01;95628.25;;;6.02;100.00
55263;BME280;41125;48.752;9.168;2023-12-22T00:56:34;95627.97;;;6.03;100.00
55263;BME280;41125;48.752;9.168;2023-12-22T00:57:06;95636.03;;;6.03;100.00
55263;BME280;41125;48.752;9.168;2023-12-22T00:57:37;95630.16;;;6.01;100.00
55263;BME280;41125;48.752;9.168;2023-12-22T00:58:08;95626.16;;;5.99;100.00
55263;BME280;41125;48.752;9.168;2023-12-22T00:58:40;95614.06;;;5.96;100.00
55263;BME280;41125;48.752;9.168;2023-12-22T00:59:11;95643.19;;;5.94;100.00
55263;BME280;41125;48.752;9.168;2023-12-22T00:59:43;95649.66;;;5.93;100.00
55263;BME280;41125;48.752;9.168;2023-12-22T01:00:19;95639.41;;;5.95;100.00
55263;BME280;41125;48.752;9.168;2023-12-22T01:00:50;95636.72;;;5.95;100.00
55263;BME280;41125;48.752;9.168;2023-12-22T01:01:21;95636.91;;;5.99;100.00
55263;BME280;41125;48.752;9.168;2023-12-22T01:01:53;95631.53;;;5.99;100.00
55263;BME280;41125;48.752;9.168;2023-12-22T01:02:24;95632.91;;;5.96;100.00
55263;BME280;41125;48.752;9.168;2023-12-22T01:02:58;95632.63;;;5.98;100.00
55263;BME280;41125;48.752;9.168;2023-12-22T01:03:29;95632.63;;;5.98;100.00
55263;BME280;41125;48.752;9.168;2023-12-22T01:04:00;95631.31;;;5.95;100.00
55263;BME280;41125;48.752;9.168;2023-12-22T01:04:31;95636.50;;;5.92;100.00
55263;BME280;41125;48.752;9.168;2023-12-22T01:05:07;95633.00;;;5.91;100.00
55263;BME280;41125;48.752;9.168;2023-12-22T01:05:39;95624.41;;;5.89;100.00
55263;BME280;41125;48.752;9.168;2023-12-22T01:06:11;95619.31;;;5.88;100.00
55263;BME280;41125;48.752;9.168;2023-12-22T01:06:42;95626.09;;;5.85;100.00
55263;BME280;41125;48.752;9.168;2023-12-22T01:07:14;95622.31;;;5.86;100.00
55263;BME280;41125;48.752;9.168;2023-12-22T01:07:45;95627.75;;;5.81;100.00
55263;BME280;41125;48.752;9.168;2023-12-22T01:08:16;95617.59;;;5.78;100.00
55263;BME280;41125;48.752;9.168;2023-12-22T01:08:47;95639.69;;;5.75;100.00
55263;BME280;41125;48.752;9.168;2023-12-22T01:09:20;95622.38;;;5.81;100.00
55263;BME280;41125;48.752;9.168;2023-12-22T01:09:55;95610.53;;;5.82;100.00
55263;BME280;41125;48.752;9.168;2023-12-22T01:10:26;95619.09;;;5.84;100.00
55263;BME280;41125;48.752;9.168;2023-12-22T01:10:57;95616.63;;;5.88;100.00
55263;BME280;41125;48.752;9.168;2023-12-22T01:11:29;95605.34;;;5.86;100.00
55263;BME280;41125;48.752;9.168;2023-12-22T01:12:01;95618.53;;;5.87;100.00
55263;BME280;41125;48.752;9.168;2023-12-22T01:12:35;95612.56;;;5.90;100.00
55263;BME280;41125;48.752;9.168;2023-12-22T01:13:06;95602.28;;;5.92;100.00
55263;BME280;41125;48.752;9.168;2023-12-22T01:13:38;95617.28;;;5.98;100.00
55263;BME280;41125;48.752;9.168;2023-12-22T01:14:12;95608.59;;;6.01;100.00
55263;BME280;41125;48.752;9.168;2023-12-22T01:14:46;95603.22;;;6.01;100.00
55263;BME280;41125;48.752;9.168;2023-12-22T01:15:17;95607.81;;;6.01;100.00
55263;BME280;41125;48.752;9.168;2023-12-22T01:15:48;95611.88;;;5.98;100.00
55263;BME280;41125;48.752;9.168;2023-12-22T01:16:19;95599.53;;;5.97;100.00
55263;BME280;41125;48.752;9.168;2023-12-22T01:16:53;95601.19;;;5.93;100.00
55263;BME280;41125;48.752;9.168;2023-12-22T01:17:27;95605.06;;;5.87;100.00
55263;BME280;41125;48.752;9.168;2023-12-22T01:17:58;95610.94;;;5.89;100.00
55263;BME280;41125;48.752;9.168;2023-12-22T01:18:29;95603.97;;;5.88;100.00
55263;BME280;41125;48.752;9.168;2023-12-22T01:19:02;95619.53;;;5.91;100.00
55263;BME280;41125;48.752;9.168;2023-12-22T01:19:33;95608.78;;;5.91;100.00
55263;BME280;41125;48.752;9.168;2023-12-22T01:20:05;95608.19;;;5.94;100.00
55263;BME280;41125;48.752;9.168;2023-12-22T01:20:39;95609.28;;;5.93;100.00
55263;BME280;41125;48.752;9.168;2023-12-22T01:21:10;95606.00;;;5.96;100.00
55263;BME280;41125;48.752;9.168;2023-12-22T01:21:42;95596.25;;;6.00;100.00
55263;BME280;41125;48.752;9.168;2023-12-22T01:22:14;95594.34;;;6.01;100.00
55263;BME280;41125;48.752;9.168;2023-12-22T01:22:45;95595.22;;;5.96;100.00
55263;BME280;41125;48.752;9.168;2023-12-22T01:23:17;95598.22;;;5.95;100.00
55263;BME280;41125;48.752;9.168;2023-12-22T01:23:48;95599.59;;;5.92;100.00
55263;BME280;41125;48.752;9.168;2023-12-22T01:24:19;95600.63;;;5.96;100.00
55263;BME280;41125;48.752;9.168;2023-12-22T01:24:50;95602.44;;;6.01;100.00
55263;BME280;41125;48.752;9.168;2023-12-22T01:25:22;95613.41;;;6.04;100.00
55263;BME280;41125;48.752;9.168;2023-12-22T01:25:54;95611.22;;;6.07;100.00
55263;BME280;41125;48.752;9.168;2023-12-22T01:26:25;95612.03;;;6.07;100.00
55263;BME280;41125;48.752;9.168;2023-12-22T01:26:56;95611.81;;;6.03;100.00
55263;BME280;41125;48.752;9.168;2023-12-22T01:27:28;95614.78;;;6.02;100.00
55263;BME280;41125;48.752;9.168;2023-12-22T01:27:59;95613.41;;;6.04;100.00
55263;BME280;41125;48.752;9.168;2023-12-22T01:28:33;95600.75;;;6.05;100.00
55263;BME280;41125;48.752;9.168;2023-12-22T01:29:06;95612.81;;;6.08;100.00
55263;BME280;41125;48.752;9.168;2023-12-22T01:29:38;95600.44;;;6.07;100.00
55263;BME280;41125;48.752;9.168;2023-12-22T01:30:10;95603.06;;;6.12;100.00
55263;BME280;41125;48.752;9.168;2023-12-22T01:30:41;95591.19;;;6.13;100.00
55263;BME280;41125;48.752;9.168;2023-12-22T01:31:13;95604.06;;;6.16;100.00
55263;BME280;41125;48.752;9.168;2023-12-22T01:31:44;95587.91;;;6.16;100.00
55263;BME280;41125;48.752;9.168;2023-12-22T01:32:15;95602.47;;;6.15;100.00
55263;BME280;41125;48.752;9.168;2023-12-22T01:32:46;95590.41;;;6.12;100.00
55263;BME280;41125;48.752;9.168;2023-12-22T01:33:17;95612.22;;;6.11;100.00
55263;BME280;41125;48.752;9.168;2023-12-22T01:33:48;95603.06;;;6.12;100.00
55263;BME280;41125;48.752;9.168;2023-12-22T01:34:20;95603.06;;;6.12;100.00
55263;BME280;41125;48.752;9.168;2023-12-22T01:34:51;95590.69;;;6.11;100.00
55263;BME280;41125;48.752;9.168;2023-12-22T01:35:22;95601.47;;;6.11;100.00
55263;BME280;41125;48.752;9.168;2023-12-22T01:35:53;95600.88;;;6.14;98.28
55263;BME280;41125;48.752;9.168;2023-12-22T01:36:29;95599.50;;;6.16;98.45
55263;BME280;41125;48.752;9.168;2023-12-22T01:37:00;95615.66;;;6.16;98.60
55263;BME280;41125;48.752;9.168;2023-12-22T01:37:32;95608.88;;;6.19;98.39
55263;BME280;41125;48.752;9.168;2023-12-22T01:38:03;95599.19;;;6.18;98.08
55263;BME280;41125;48.752;9.168;2023-12-22T01:38:36;95621.84;;;6.17;98.11
55263;BME280;41125;48.752;9.168;2023-12-22T01:39:08;95619.72;;;6.14;97.54
55263;BME280;41125;48.752;9.168;2023-12-22T01:39:40;95610.06;;;6.13;97.08
55263;BME280;41125;48.752;9.168;2023-12-22T01:40:11;95617.03;;;6.14;96.49
55263;BME280;41125;48.752;9.168;2023-12-22T01:40:42;95618.63;;;6.15;96.61
55263;BME280;41125;48.752;9.168;2023-12-22T01:41:14;95616.44;;;6.17;96.75
55263;BME280;41125;48.752;9.168;2023-12-22T01:41:45;95612.66;;;6.18;96.94
55263;BME280;41125;48.752;9.168;2023-12-22T01:42:16;95619.94;;;6.17;96.35
55263;BME280;41125;48.752;9.168;2023-12-22T01:42:48;95620.22;;;6.16;96.78
55263;BME280;41125;48.752;9.168;2023-12-22T01:43:19;95637.19;;;6.16;94.17
55263;BME280;41125;48.752;9.168;2023-12-22T01:43:52;95632.31;;;6.18;94.18
55263;BME280;41125;48.752;9.168;2023-12-22T01:44:23;95621.25;;;6.20;93.73
55263;BME280;41125;48.752;9.168;2023-12-22T01:44:54;95609.88;;;6.23;94.73
55263;BME280;41125;48.752;9.168;2023-12-22T01:45:26;95634.59;;;6.25;94.77
55263;BME280;41125;48.752;9.168;2023-12-22T01:45:58;95623.66;;;6.21;93.17
55263;BME280;41125;48.752;9.168;2023-12-22T01:46:32;95628.22;;;6.21;93.94
55263;BME280;41125;48.752;9.168;2023-12-22T01:47:04;95620.16;;;6.21;93.77
55263;BME280;41125;48.752;9.168;2023-12-22T01:47:36;95627.44;;;6.20;93.05
55263;BME280;41125;48.752;9.168;2023-12-22T01:48:07;95618.56;;;6.20;93.42
55263;BME280;41125;48.752;9.168;2023-12-22T01:48:40;95629.81;;;6.22;92.85
55263;BME280;41125;48.752;9.168;2023-12-22T01:49:12;95624.44;;;6.22;92.75
55263;BME280;41125;48.752;9.168;2023-12-22T01:49:43;95645.19;;;6.21;93.00
55263;BME280;41125;48.752;9.168;2023-12-22T01:50:15;95635.81;;;6.19;93.93
55263;BME280;41125;48.752;9.168;2023-12-22T01:50:47;95627.72;;;6.19;92.93
55263;BME280;41125;48.752;9.168;2023-12-22T01:51:19;95641.19;;;6.19;91.94
55263;BME280;41125;48.752;9.168;2023-12-22T01:51:51;95625.03;;;6.19;91.45
55263;BME280;41125;48.752;9.168;2023-12-22T01:52:24;95633.63;;;6.21;92.02
55263;BME280;41125;48.752;9.168;2023-12-22T01:52:57;95639.59;;;6.18;92.03
55263;BME280;41125;48.752;9.168;2023-12-22T01:53:29;95633.69;;;6.16;91.61
55263;BME280;41125;48.752;9.168;2023-12-22T01:54:04;95641.78;;;6.16;90.69
55263;BME280;41125;48.752;9.168;2023-12-22T01:54:36;95635.59;;;6.15;90.55
55263;BME280;41125;48.752;9.168;2023-12-22T01:55:10;95642.94;;;6.10;91.41
55263;BME280;41125;48.752;9.168;2023-12-22T01:55:42;95635.97;;;6.09;91.28
55263;BME280;41125;48.752;9.168;2023-12-22T01:56:14;95642.38;;;6.13;91.21
55263;BME280;41125;48.752;9.168;2023-12-22T01:56:46;95635.88;;;6.14;90.93
55263;BME280;41125;48.752;9.168;2023-12-22T01:57:18;95643.66;;;6.15;90.43
55263;BME280;41125;48.752;9.168;2023-12-22T01:57:51;95634.78;;;6.15;91.04
55263;BME280;41125;48.752;9.168;2023-12-22T01:58:23;95628.59;;;6.14;90.83
55263;BME280;41125;48.752;9.168;2023-12-22T01:58:59;95630.50;;;6.14;91.03
55263;BME280;41125;48.752;9.168;2023-12-22T01:59:32;95641.78;;;6.16;90.69
55263;BME280;41125;48.752;9.168;2023-12-22T02:00:07;95639.38;;;6.14;90.71
55263;BME280;41125;48.752;9.168;2023-12-22T02:00:39;95644.97;;;6.18;90.57
55263;BME280;41125;48.752;9.168;2023-12-22T02:01:11;95652.56;;;6.16;91.26
55263;BME280;41125;48.752;9.168;2023-12-22T02:01:43;95648.75;;;6.17;90.45
55263;BME280;41125;48.752;9.168;2023-12-22T02:02:17;95650.56;;;6.21;89.99
55263;BME280;41125;48.752;9.168;2023-12-22T02:02:52;95658.44;;;6.18;89.35
55263;BME280;41125;48.752;9.168;2023-12-22T02:03:24;95655.16;;;6.21;89.57
55263;BME280;41125;48.752;9.168;2023-12-22T02:03:55;95660.56;;;6.21;89.62
55263;BME280;41125;48.752;9.168;2023-12-22T02:04:28;95632.03;;;6.20;89.90
55263;BME280;41125;48.752;9.168;2023-12-22T02:05:02;95641.78;;;6.16;89.29
55263;BME280;41125;48.752;9.168;2023-12-22T02:05:34;95651.97;;;6.19;89.51
55263;BME280;41125;48.752;9.168;2023-12-22T02:06:05;95649.06;;;6.15;89.89
55263;BME280;41125;48.752;9.168;2023-12-22T02:06:37;95654.75;;;6.14;90.64
55263;BME280;41125;48.752;9.168;2023-12-22T02:07:09;95653.44;;;6.11;90.98
55263;BME280;41125;48.752;9.168;2023-12-22T02:07:42;95649.94;;;6.11;91.06
55263;BME280;41125;48.752;9.168;2023-12-22T02:08:18;95652.12;;;6.09;90.53
55263;BME280;41125;48.752;9.168;2023-12-22T02:08:50;95658.00;;;6.11;90.56
55263;BME280;41125;48.752;9.168;2023-12-22T02:09:21;95655.31;;;6.11;90.21
55263;BME280;41125;48.752;9.168;2023-12-22T02:09:52;95653.72;;;6.10;90.19
55263;BME280;41125;48.752;9.168;2023-12-22T02:10:24;95641.34;;;6.09;90.68
55263;BME280;41125;48.752;9.168;2023-12-22T02:10:55;95641.34;;;6.09;90.00
55263;BME280;41125;48.752;9.168;2023-12-22T02:11:27;95635.16;;;6.08;90.30
55263;BME280;41125;48.752;9.168;2023-12-22T02:11:58;95640.25;;;6.10;90.50
55263;BME280;41125;48.752;9.168;2023-12-22T02:12:29;95643.75;;;6.10;90.43
55263;BME280;41125;48.752;9.168;2023-12-22T02:13:01;95628.41;;;6.11;90.75
55263;BME280;41125;48.752;9.168;2023-12-22T02:13:32;95641.34;;;6.09;90.51
55263;BME280;41125;48.752;9.168;2023-12-22T02:14:07;95642.44;;;6.08;91.87
55263;BME280;41125;48.752;9.168;2023-12-22T02:14:39;95628.19;;;6.07;90.84
55263;BME280;41125;48.752;9.168;2023-12-22T02:15:10;95656.91;;;6.12;90.41
55263;BME280;41125;48.752;9.168;2023-12-22T02:15:42;95638.88;;;6.12;89.26
55263;BME280;41125;48.752;9.168;2023-12-22T02:18:26;95642.44;;;6.08;89.98
55263;BME280;41125;48.752;9.168;2023-12-22T02:19:27;95632.19;;;6.10;89.43
55263;BME280;41125;48.752;9.168;2023-12-22T02:20:07;95646.16;;;6.12;89.07
55263;BME280;41125;48.752;9.168;2023-12-22T02:20:39;95633.47;;;6.12;88.36
55263;BME280;41125;48.752;9.168;2023-12-22T02:21:11;95642.38;;;6.13;88.48
55263;BME280;41125;48.752;9.168;2023-12-22T02:22:19;95646.38;;;6.15;88.56
55263;BME280;41125;48.752;9.168;2023-12-22T02:22:52;95662.53;;;6.15;89.04
55263;BME280;41125;48.752;9.168;2023-12-22T02:23:24;95661.72;;;6.15;88.84
55263;BME280;41125;48.752;9.168;2023-12-22T02:23:55;95653.12;;;6.13;89.04
55263;BME280;41125;48.752;9.168;2023-12-22T02:24:26;95653.12;;;6.13;89.43
55263;BME280;41125;48.752;9.168;2023-12-22T02:24:59;95664.50;;;6.10;89.99
55263;BME280;41125;48.752;9.168;2023-12-22T02:25:30;95662.38;;;6.07;89.19
55263;BME280;41125;48.752;9.168;2023-12-22T02:26:27;95671.06;;;6.03;89.22
55263;BME280;41125;48.752;9.168;2023-12-22T02:27:32;95659.78;;;6.01;89.67
55263;BME280;41125;48.752;9.168;2023-12-22T02:28:10;95655.69;;;6.04;89.09
55263;BME280;41125;48.752;9.168;2023-12-22T02:28:46;95659.25;;;5.99;88.19
55263;BME280;41125;48.752;9.168;2023-12-22T02:29:18;95659.19;;;6.04;87.81
55263;BME280;41125;48.752;9.168;2023-12-22T02:29:57;95655.47;;;6.00;88.12
55263;BME280;41125;48.752;9.168;2023-12-22T02:30:37;95653.06;;;5.99;88.79
55263;BME280;41125;48.752;9.168;2023-12-22T02:31:17;95659.47;;;6.03;87.48
55263;BME280;41125;48.752;9.168;2023-12-22T02:31:53;95668.44;;;5.98;87.81
55263;BME280;41125;48.752;9.168;2023-12-22T02:32:30;95664.13;;;5.97;88.21
55263;BME280;41125;48.752;9.168;2023-12-22T02:33:04;95654.09;;;6.03;87.66
55263;BME280;41125;48.752;9.168;2023-12-22T02:33:36;95658.91;;;6.06;87.03
55263;BME280;41125;48.752;9.168;2023-12-22T02:34:14;95674.19;;;6.11;87.33
55263;BME280;41125;48.752;9.168;2023-12-22T02:34:52;95670.09;;;6.13;86.99
55263;BME280;41125;48.752;9.168;2023-12-22T02:35:28;95665.50;;;6.14;87.99
55263;BME280;41125;48.752;9.168;2023-12-22T02:36:03;95673.59;;;6.14;86.83
55263;BME280;41125;48.752;9.168;2023-12-22T02:36:39;95652.34;;;6.12;86.57
55263;BME280;41125;48.752;9.168;2023-12-22T02:37:11;95665.28;;;6.10;87.03
55263;BME280;41125;48.752;9.168;2023-12-22T02:37:45;95676.06;;;6.10;87.03
55263;BME280;41125;48.752;9.168;2023-12-22T02:38:17;95686.03;;;6.10;87.35
55263;BME280;41125;48.752;9.168;2023-12-22T02:38:52;95677.44;;;6.08;88.08
55263;BME280;41125;48.752;9.168;2023-12-22T02:39:25;95659.09;;;6.10;86.45
55263;BME280;41125;48.752;9.168;2023-12-22T02:39:57;95667.69;;;6.12;85.46
55263;BME280;41125;48.752;9.168;2023-12-22T02:40:30;95669.00;;;6.14;85.50
55263;BME280;41125;48.752;9.168;2023-12-22T02:41:02;95663.31;;;6.16;86.02
55263;BME280;41125;48.752;9.168;2023-12-22T02:41:35;95663.31;;;6.16;85.97
55263;BME280;41125;48.752;9.168;2023-12-22T02:42:08;95653.94;;;6.13;86.39
55263;BME280;41125;48.752;9.168;2023-12-22T02:42:40;95663.69;;;6.09;86.84
55263;BME280;41125;48.752;9.168;2023-12-22T02:43:12;95666.38;;;6.09;86.07
55263;BME280;41125;48.752;9.168;2023-12-22T02:43:43;95677.97;;;6.10;85.87
55263;BME280;41125;48.752;9.168;2023-12-22T02:44:18;95666.31;;;6.14;86.12
55263;BME280;41125;48.752;9.168;2023-12-22T02:44:50;95676.78;;;6.16;85.89
55263;BME280;41125;48.752;9.168;2023-12-22T02:45:22;95661.94;;;6.18;85.73
55263;BME280;41125;48.752;9.168;2023-12-22T02:45:53;95663.31;;;6.16;85.08
55263;BME280;41125;48.752;9.168;2023-12-22T02:46:24;95659.53;;;6.17;85.15
55263;BME280;41125;48.752;9.168;2023-12-22T02:46:56;95651.16;;;6.18;84.66
55263;BME280;41125;48.752;9.168;2023-12-22T02:47:28;95643.59;;;6.20;85.13
55263;BME280;41125;48.752;9.168;2023-12-22T02:47:59;95644.69;;;6.19;84.69
55263;BME280;41125;48.752;9.168;2023-12-22T02:48:31;95644.97;;;6.18;84.82
55263;BME280;41125;48.752;9.168;2023-12-22T02:49:03;95661.94;;;6.18;84.83
55263;BME280;41125;48.752;9.168;2023-12-22T02:49:34;95657.06;;;6.20;85.09
55263;BME280;41125;48.752;9.168;2023-12-22T02:50:06;95651.97;;;6.19;85.18
55263;BME280;41125;48.752;9.168;2023-12-22T02:50:37;95647.38;;;6.19;84.96
55263;BME280;41125;48.752;9.168;2023-12-22T02:51:11;95642.06;;;6.14;84.93
55263;BME280;41125;48.752;9.168;2023-12-22T02:51:42;95647.16;;;6.16;85.36
55263;BME280;41125;48.752;9.168;2023-12-22T02:52:13;95641.78;;;6.16;85.55
55263;BME280;41125;48.752;9.168;2023-12-22T02:52:44;95647.16;;;6.16;85.39
55263;BME280;41125;48.752;9.168;2023-12-22T02:53:15;95636.91;;;6.18;85.03
55263;BME280;41125;48.752;9.168;2023-12-22T02:53:47;95633.63;;;6.21;85.08
55263;BME280;41125;48.752;9.168;2023-12-22T02:54:18;95639.81;;;6.21;85.30
55263;BME280;41125;48.752;9.168;2023-12-22T02:54:49;95644.09;;;6.22;85.03
55263;BME280;41125;48.752;9.168;2023-12-22T02:55:21;95638.19;;;6.20;85.63
55263;BME280;41125;48.752;9.168;2023-12-22T02:55:52;95638.00;;;6.17;86.41
55263;BME280;41125;48.752;9.168;2023-12-22T02:56:23;95623.44;;;6.18;85.67
55263;BME280;41125;48.752;9.168;2023-12-22T02:56:54;95652.47;;;6.21;86.33